createdAt,value
2022-09-20T00:00:24.529Z,1.37
2022-09-20T00:04:27.809Z,1.07
2022-09-20T00:08:31.433Z,0.80
2022-09-20T00:12:36.202Z,0.87
2022-09-20T00:16:42.074Z,1.33
2022-09-20T00:20:49.363Z,0.87
2022-09-20T00:24:52.692Z,1.00
2022-09-20T00:28:59.189Z,1.20
2022-09-20T00:33:02.953Z,0.93
2022-09-20T00:37:06.313Z,1.23
2022-09-20T00:41:10.498Z,1.37
2022-09-20T00:45:22.207Z,1.00
2022-09-20T00:49:29.091Z,1.30
2022-09-20T00:53:35.452Z,1.10
2022-09-20T00:57:41.094Z,1.30
2022-09-20T01:01:47.779Z,0.90
2022-09-20T01:05:52.080Z,1.30
2022-09-20T01:09:55.339Z,0.93
2022-09-20T01:13:58.865Z,0.80
2022-09-20T01:18:06.034Z,1.10
2022-09-20T01:22:18.228Z,0.90
2022-09-20T01:26:38.967Z,1.10
2022-09-20T01:30:48.409Z,0.90
2022-09-20T01:34:56.029Z,0.70
2022-09-20T01:39:11.260Z,1.23
2022-09-20T01:43:24.329Z,0.87
2022-09-20T01:47:36.970Z,1.13
2022-09-20T01:52:14.669Z,1.13
2022-09-20T01:56:47.351Z,0.93
2022-09-20T02:01:10.402Z,1.07
2022-09-20T02:06:01.613Z,1.10
2022-09-20T02:10:29.428Z,0.90
2022-09-20T02:14:42.548Z,1.00
2022-09-20T02:19:01.279Z,1.27
2022-09-20T02:23:22.469Z,0.90
2022-09-20T02:27:36.408Z,0.90
2022-09-20T02:32:12.748Z,1.10
2022-09-20T02:36:32.149Z,1.33
2022-09-20T02:40:58.184Z,0.77
2022-09-20T02:45:10.626Z,1.20
2022-09-20T02:49:23.366Z,1.43
2022-09-20T02:53:40.497Z,1.53
2022-09-20T02:57:51.963Z,1.20
2022-09-20T03:02:08.433Z,1.30
2022-09-20T03:06:22.157Z,1.60
2022-09-20T03:10:33.991Z,1.63
2022-09-20T03:14:41.163Z,1.80
2022-09-20T03:18:53.570Z,1.50
2022-09-20T03:23:03.362Z,1.60
2022-09-20T03:27:16.736Z,1.30
2022-09-20T03:31:30.964Z,1.50
2022-09-20T03:35:53.799Z,1.53
2022-09-20T03:40:46.685Z,0.93
2022-09-20T03:45:23.519Z,1.43
2022-09-20T05:56:05.765Z,7.33
2022-09-20T06:00:14.592Z,4.30
2022-09-20T06:04:24.976Z,5.60
2022-09-20T06:08:44.493Z,15.20
2022-09-20T06:12:59.702Z,10.73
2022-09-20T06:17:12.933Z,9.00
2022-09-20T06:21:32.016Z,4.77
2022-09-20T06:25:43.070Z,2.80
2022-09-20T06:29:54.524Z,2.67
2022-09-20T06:34:00.093Z,2.87
2022-09-20T06:38:36.315Z,3.37
2022-09-20T06:42:39.611Z,4.10
2022-09-20T06:46:44.397Z,4.30
2022-09-20T06:50:47.771Z,3.53
2022-09-20T06:54:54.382Z,2.93
2022-09-20T06:58:57.865Z,3.50
2022-09-20T07:03:02.685Z,2.23
2022-09-20T07:07:09.591Z,2.20
2022-09-20T07:11:18.110Z,1.80
2022-09-20T07:15:22.958Z,2.20
2022-09-20T07:19:27.588Z,1.50
2022-09-20T07:23:31.443Z,2.77
2022-09-20T07:27:34.717Z,3.20
2022-09-20T07:31:38.005Z,2.80
2022-09-20T07:35:42.617Z,1.73
2022-09-20T07:39:46.891Z,1.97
2022-09-20T07:43:50.919Z,1.50
2022-09-20T07:47:54.578Z,1.43
2022-09-20T07:52:00.108Z,1.63
2022-09-20T07:56:05.570Z,1.40
2022-09-20T08:00:10.577Z,1.00
2022-09-20T08:04:14.028Z,1.40
2022-09-20T08:08:22.536Z,0.60
2022-09-20T08:16:51.903Z,0.37
2022-09-20T08:20:56.421Z,0.30
2022-09-20T08:25:01.499Z,0.30
2022-09-20T08:29:06.674Z,0.30
2022-09-20T08:33:11.665Z,0.30
2022-09-20T08:37:16.262Z,0.60
2022-09-20T08:41:26.277Z,0.60
2022-09-20T08:45:36.975Z,0.27
2022-09-20T08:49:46.019Z,0.30
2022-09-20T08:53:52.240Z,0.40
2022-09-20T08:58:03.908Z,0.40
2022-09-20T09:02:16.611Z,0.27
2022-09-20T09:06:22.834Z,0.30
2022-09-20T09:10:27.276Z,0.40
2022-09-20T09:14:55.266Z,0.60
2022-09-20T09:18:59.325Z,0.30
2022-09-20T09:23:04.979Z,0.30
2022-09-20T09:27:14.987Z,0.30
2022-09-20T09:31:27.444Z,0.30
2022-09-20T09:35:32.947Z,0.30
2022-09-20T09:39:38.392Z,0.30
2022-09-20T09:43:43.361Z,0.30
2022-09-20T09:47:48.039Z,0.30
2022-09-20T09:52:13.396Z,0.20
2022-09-20T09:56:41.787Z,0.40
2022-09-20T10:00:47.312Z,0.30
2022-09-20T10:05:01.793Z,0.30
2022-09-20T10:09:24.245Z,0.30
2022-09-20T10:13:37.106Z,0.40
2022-09-20T10:17:53.696Z,0.50
2022-09-20T10:22:08.394Z,0.30
2022-09-20T10:26:23.744Z,0.30
2022-09-20T10:30:33.068Z,0.40
2022-09-20T10:34:56.461Z,0.30
2022-09-20T10:39:07.622Z,0.30
2022-09-20T10:43:29.091Z,0.30
2022-09-20T10:47:36.357Z,0.30
2022-09-20T10:51:52.976Z,0.30
2022-09-20T10:56:11.575Z,0.30
2022-09-20T11:00:22.412Z,0.30
2022-09-20T11:04:48.955Z,0.40
2022-09-20T11:08:57.283Z,0.47
2022-09-20T11:13:09.514Z,0.50
2022-09-20T11:17:22.004Z,0.40
2022-09-20T11:21:33.482Z,0.30
2022-09-20T11:25:44.840Z,0.37
2022-09-20T11:29:55.266Z,0.37
2022-09-20T11:34:01.754Z,0.40
2022-09-20T11:38:26.631Z,0.40
2022-09-20T11:42:34.316Z,0.40
2022-09-20T11:46:45.507Z,0.40
2022-09-20T11:51:15.865Z,0.50
2022-09-20T11:55:28.669Z,0.40
2022-09-20T11:59:38.298Z,0.40
2022-09-20T12:03:46.452Z,0.70
2022-09-20T12:07:55.338Z,0.40
2022-09-20T12:11:59.689Z,0.43
2022-09-20T12:16:06.687Z,0.50
2022-09-20T12:20:44.891Z,0.43
2022-09-20T12:25:28.660Z,0.40
2022-09-20T12:29:54.571Z,0.50
2022-09-20T12:33:59.853Z,0.40
2022-09-20T12:38:18.815Z,0.87
2022-09-20T12:42:31.091Z,0.50
2022-09-20T12:46:42.481Z,0.73
2022-09-20T12:51:20.666Z,0.40
2022-09-20T12:55:45.643Z,0.50
2022-09-20T12:59:59.113Z,0.73
2022-09-20T13:04:53.311Z,0.63
2022-09-20T13:09:09.186Z,0.60
2022-09-20T13:13:34.090Z,0.50
2022-09-20T13:17:42.223Z,0.40
2022-09-20T13:21:57.909Z,0.43
2022-09-20T13:26:04.088Z,0.53
2022-09-20T13:30:16.596Z,0.50
2022-09-20T13:34:24.105Z,0.50
2022-09-20T13:38:34.152Z,0.40
2022-09-20T13:42:37.779Z,0.40
2022-09-20T13:46:46.299Z,0.50
2022-09-20T13:50:53.848Z,0.40
2022-09-20T13:55:01.229Z,0.50
2022-09-20T13:59:06.359Z,0.43
2022-09-20T14:03:19.699Z,0.40
2022-09-20T14:07:28.206Z,0.50
2022-09-20T14:11:33.951Z,0.30
2022-09-20T14:15:40.515Z,0.47
2022-09-20T14:19:51.440Z,0.50
2022-09-20T14:23:58.464Z,0.50
2022-09-20T14:28:17.567Z,0.63
2022-09-20T14:32:39.362Z,0.50
2022-09-20T14:36:50.189Z,0.57
2022-09-20T14:40:55.020Z,0.50
2022-09-20T14:44:59.922Z,0.57
2022-09-20T14:49:33.317Z,0.60
2022-09-20T14:53:41.190Z,0.83
2022-09-20T14:57:49.992Z,0.57
2022-09-20T15:02:02.214Z,0.60
2022-09-20T15:06:07.096Z,0.53
2022-09-20T15:10:14.169Z,0.70
2022-09-20T15:14:19.017Z,0.43
2022-09-20T15:18:25.013Z,0.50
2022-09-20T15:22:30.714Z,0.40
2022-09-20T15:26:35.080Z,0.50
2022-09-20T15:30:41.349Z,0.40
2022-09-20T15:34:47.599Z,0.43
2022-09-20T15:38:55.099Z,0.50
2022-09-20T15:43:00.501Z,0.40
2022-09-20T15:47:06.337Z,0.50
2022-09-20T15:51:12.378Z,0.50
2022-09-20T15:55:18.292Z,0.57
2022-09-20T16:01:20.051Z,0.50
2022-09-20T16:05:21.893Z,0.60
2022-09-20T16:09:30.080Z,0.57
2022-09-20T16:13:36.418Z,0.30
2022-09-20T16:17:59.098Z,0.50
2022-09-20T16:22:03.846Z,0.50
2022-09-20T16:26:07.975Z,0.60
2022-09-20T16:30:12.258Z,0.40
2022-09-20T16:34:18.787Z,0.50
2022-09-20T16:38:24.364Z,0.50
2022-09-20T16:42:28.079Z,0.80
2022-09-20T16:46:32.990Z,0.60
2022-09-20T16:50:36.285Z,0.80
2022-09-20T16:54:41.017Z,0.87
2022-09-20T16:58:44.399Z,0.67
2022-09-20T17:02:50.074Z,0.50
2022-09-20T17:06:53.778Z,0.70
2022-09-20T17:11:02.654Z,0.93
2022-09-20T17:15:06.727Z,0.50
2022-09-20T17:19:11.807Z,1.20
2022-09-20T17:23:15.741Z,1.87
2022-09-20T17:27:20.436Z,1.13
2022-09-20T17:31:28.731Z,0.67
2022-09-20T17:35:32.437Z,0.73
2022-09-20T17:39:36.071Z,1.07
2022-09-20T17:43:44.008Z,0.60
2022-09-20T17:47:48.855Z,0.87
2022-09-20T17:51:54.403Z,1.03
2022-09-20T17:55:58.676Z,0.50
2022-09-20T18:00:05.454Z,1.10
2022-09-20T18:04:17.143Z,1.00
2022-09-20T18:08:20.421Z,0.80
2022-09-20T18:12:23.632Z,1.10
2022-09-20T18:16:28.940Z,0.80
2022-09-20T18:20:33.224Z,0.80
2022-09-20T18:24:43.267Z,0.97
2022-09-20T18:28:49.959Z,1.03
2022-09-20T18:32:54.927Z,1.00
2022-09-20T18:37:00.068Z,1.07
2022-09-20T18:41:05.276Z,1.40
2022-09-20T18:45:10.371Z,1.40
2022-09-20T18:49:17.079Z,1.30
2022-09-20T18:53:21.613Z,1.80
2022-09-20T18:57:26.353Z,1.83
2022-09-20T19:01:59.350Z,1.73
2022-09-20T19:06:10.159Z,1.60
2022-09-20T19:10:21.885Z,2.00
2022-09-20T19:14:33.957Z,2.73
2022-09-20T19:18:58.921Z,2.33
2022-09-20T19:23:17.512Z,2.07
2022-09-20T19:31:45.320Z,1.10
2022-09-20T19:35:51.773Z,1.70
2022-09-20T19:40:26.388Z,0.80
2022-09-20T19:44:39.712Z,1.07
2022-09-20T19:48:54.714Z,1.47
2022-09-20T19:52:59.922Z,0.93
2022-09-20T19:57:12.825Z,1.00
2022-09-20T20:01:17.829Z,1.13
2022-09-20T20:05:25.675Z,0.73
2022-09-20T20:09:37.645Z,0.70
2022-09-20T20:14:05.214Z,0.80
2022-09-20T20:18:16.870Z,0.60
2022-09-20T20:22:41.102Z,0.63
2022-09-20T20:26:45.322Z,0.40
2022-09-20T20:30:50.303Z,0.60
2022-09-20T20:34:58.538Z,0.60
2022-09-20T20:39:02.794Z,0.70
2022-09-20T20:43:06.281Z,0.50
2022-09-20T20:47:11.463Z,0.70
2022-09-20T20:51:17.172Z,0.60
2022-09-20T20:55:20.655Z,0.87
2022-09-20T20:59:25.190Z,0.50
2022-09-20T21:03:30.889Z,0.50
2022-09-20T21:07:34.189Z,0.70
2022-09-20T21:11:39.129Z,0.83
2022-09-20T21:15:42.737Z,0.50
2022-09-20T21:19:47.357Z,0.67
2022-09-20T21:23:52.315Z,1.00
2022-09-20T21:27:55.526Z,1.10
2022-09-20T21:31:58.750Z,0.80
2022-09-20T21:36:05.580Z,1.17
2022-09-20T21:40:10.104Z,3.23
2022-09-20T21:44:15.414Z,2.07
2022-09-20T21:48:18.905Z,3.43
2022-09-20T21:52:24.102Z,2.27
2022-09-20T21:56:29.185Z,1.50
2022-09-20T22:00:33.563Z,2.00
2022-09-20T22:04:37.047Z,1.73
2022-09-20T22:08:47.378Z,1.20
2022-09-20T22:12:52.758Z,1.30
2022-09-20T22:16:56.108Z,1.30
2022-09-20T22:21:04.012Z,1.33
2022-09-20T22:25:09.904Z,1.30
2022-09-20T22:29:13.246Z,1.10
2022-09-20T22:33:16.444Z,1.60
2022-09-20T22:37:19.699Z,1.20
2022-09-20T22:41:25.081Z,1.40
2022-09-20T22:45:28.279Z,1.50
2022-09-20T22:49:31.469Z,2.00
2022-09-20T22:53:35.263Z,1.87
2022-09-20T22:57:39.865Z,1.50
2022-09-20T23:01:44.772Z,1.10
2022-09-20T23:05:48.048Z,1.50
2022-09-20T23:09:51.299Z,1.33
2022-09-20T23:13:57.321Z,1.40
2022-09-20T23:18:00.712Z,0.93
2022-09-20T23:22:03.977Z,1.10
2022-09-20T23:26:08.806Z,1.17
2022-09-20T23:30:13.975Z,1.00
2022-09-20T23:34:18.527Z,1.13
2022-09-20T23:38:21.751Z,1.60
2022-09-20T23:42:24.986Z,1.40
2022-09-20T23:46:29.708Z,1.23
2022-09-20T23:50:32.977Z,1.10
2022-09-20T23:54:36.205Z,1.30
2022-09-20T23:58:40.545Z,2.03
